DAL964 SVMI-SYCJ
Flight info
| Callsign | DAL964 |
|---|---|
| Flight time | 1h 31m |
| Altitude | 35000 |
| Route | OSMAR2 OSMAR W20 CBC UG443 AKROK/N0387F230 G443 LIKEV DCT GATUX DCT AKSIN |
| Aircraft | B738/M-SDE2E3FGHIRWXY/LB1 |
Departure
| Time | 2026-05-05 14:07 |
|---|---|
| Airport | Maiquetía Simón Bolívar International Airport (SVMI) |
Arrival
| Time | 2026-05-05 15:38 |
|---|---|
| Airport | Cheddi Jagan International Airport (SYCJ) |
| Time | Latitude | Longitude | Altitude | Speed | Heading |
|---|---|---|---|---|---|
| 2026-05-05 13:53 | 10.59832 | -67.00228 | 223 ft | 0 kts | 178° |
| 2026-05-05 13:55 | 10.59835 | -67.00228 | 224 ft | 3 kts | 178° |
| 2026-05-05 13:55 | 10.59856 | -67.00229 | 226 ft | 3 kts | 178° |
| 2026-05-05 13:55 | 10.59876 | -67.00230 | 224 ft | 3 kts | 178° |
| 2026-05-05 13:56 | 10.59897 | -67.00229 | 223 ft | 3 kts | 202° |
| 2026-05-05 13:56 | 10.59912 | -67.00216 | 225 ft | 3 kts | 243° |
| 2026-05-05 13:56 | 10.59916 | -67.00200 | 224 ft | 0 kts | 276° |
| 2026-05-05 14:00 | 10.59916 | -67.00199 | 224 ft | 0 kts | 276° |
| 2026-05-05 14:00 | 10.59916 | -67.00191 | 223 ft | 2 kts | 276° |
| 2026-05-05 14:00 | 10.59918 | -67.00211 | 224 ft | 8 kts | 276° |
| 2026-05-05 14:01 | 10.59923 | -67.00268 | 223 ft | 8 kts | 275° |
| 2026-05-05 14:01 | 10.59924 | -67.00325 | 224 ft | 8 kts | 266° |
| 2026-05-05 14:01 | 10.59923 | -67.00381 | 225 ft | 8 kts | 269° |
| 2026-05-05 14:01 | 10.59922 | -67.00437 | 226 ft | 8 kts | 266° |
| 2026-05-05 14:02 | 10.59920 | -67.00495 | 227 ft | 8 kts | 268° |
| 2026-05-05 14:02 | 10.59918 | -67.00568 | 229 ft | 11 kts | 268° |
| 2026-05-05 14:02 | 10.59915 | -67.00644 | 230 ft | 11 kts | 268° |
| 2026-05-05 14:02 | 10.59913 | -67.00718 | 231 ft | 10 kts | 268° |
| 2026-05-05 14:03 | 10.59911 | -67.00790 | 232 ft | 10 kts | 268° |
| 2026-05-05 14:03 | 10.59909 | -67.00860 | 234 ft | 10 kts | 268° |
| 2026-05-05 14:03 | 10.59907 | -67.00928 | 235 ft | 10 kts | 268° |
| 2026-05-05 14:03 | 10.59905 | -67.00994 | 236 ft | 9 kts | 268° |
| 2026-05-05 14:04 | 10.59903 | -67.01059 | 237 ft | 9 kts | 268° |
| 2026-05-05 14:04 | 10.59901 | -67.01122 | 238 ft | 9 kts | 268° |
| 2026-05-05 14:04 | 10.59899 | -67.01180 | 239 ft | 9 kts | 268° |
| 2026-05-05 14:04 | 10.59902 | -67.01230 | 240 ft | 0 kts | 294° |
| 2026-05-05 14:05 | 10.59903 | -67.01231 | 240 ft | 0 kts | 300° |
| 2026-05-05 14:05 | 10.59932 | -67.01238 | 240 ft | 10 kts | 359° |
| 2026-05-05 14:05 | 10.60011 | -67.01241 | 240 ft | 12 kts | 358° |
| 2026-05-05 14:06 | 10.60100 | -67.01244 | 240 ft | 14 kts | 358° |
| 2026-05-05 14:06 | 10.60206 | -67.01247 | 237 ft | 14 kts | 11° |
| 2026-05-05 14:06 | 10.60215 | -67.01221 | 240 ft | 5 kts | 88° |
| 2026-05-05 14:06 | 10.60221 | -67.00996 | 232 ft | 71 kts | 88° |
| 2026-05-05 14:07 | 10.60245 | -67.00212 | 219 ft | 148 kts | 88° |
| 2026-05-05 14:07 | 10.60267 | -66.98988 | 495 ft | 188 kts | 89° |
| 2026-05-05 14:07 | 10.60273 | -66.97613 | 1365 ft | 202 kts | 90° |
| 2026-05-05 14:07 | 10.60170 | -66.96133 | 1996 ft | 227 kts | 93° |
| 2026-05-05 14:08 | 10.60103 | -66.94452 | 2681 ft | 243 kts | 96° |
| 2026-05-05 14:08 | 10.60007 | -66.92748 | 3920 ft | 239 kts | 95° |
| 2026-05-05 14:08 | 10.59949 | -66.91072 | 5255 ft | 235 kts | 95° |
| 2026-05-05 14:08 | 10.59853 | -66.89426 | 6307 ft | 237 kts | 94° |
| 2026-05-05 14:09 | 10.59725 | -66.87756 | 7170 ft | 238 kts | 95° |
| 2026-05-05 14:09 | 10.59595 | -66.86086 | 8010 ft | 237 kts | 95° |
| 2026-05-05 14:09 | 10.59513 | -66.84386 | 8397 ft | 258 kts | 83° |
| 2026-05-05 14:09 | 10.60348 | -66.82680 | 8369 ft | 285 kts | 49° |
| 2026-05-05 14:10 | 10.61850 | -66.81315 | 8343 ft | 291 kts | 41° |
| 2026-05-05 14:10 | 10.63385 | -66.80009 | 8337 ft | 284 kts | 45° |
| 2026-05-05 14:10 | 10.64731 | -66.78568 | 8337 ft | 279 kts | 54° |
| 2026-05-05 14:10 | 10.65845 | -66.76959 | 8337 ft | 278 kts | 61° |
| 2026-05-05 14:11 | 10.66755 | -66.75260 | 8336 ft | 279 kts | 66° |
| 2026-05-05 14:11 | 10.67545 | -66.73462 | 8344 ft | 279 kts | 70° |
| 2026-05-05 14:11 | 10.68243 | -66.71632 | 8331 ft | 276 kts | 72° |
| 2026-05-05 14:11 | 10.68877 | -66.69797 | 8342 ft | 274 kts | 73° |
| 2026-05-05 14:12 | 10.69483 | -66.67950 | 8342 ft | 276 kts | 72° |
| 2026-05-05 14:12 | 10.70265 | -66.66151 | 8339 ft | 277 kts | 72° |
| 2026-05-05 14:12 | 10.70799 | -66.64272 | 8351 ft | 277 kts | 77° |
| 2026-05-05 14:12 | 10.71286 | -66.62366 | 8344 ft | 279 kts | 76° |
| 2026-05-05 14:13 | 10.71804 | -66.60486 | 8330 ft | 280 kts | 75° |
| 2026-05-05 14:13 | 10.72357 | -66.58587 | 8335 ft | 280 kts | 75° |
| 2026-05-05 14:13 | 10.72892 | -66.56688 | 8317 ft | 279 kts | 82° |
| 2026-05-05 14:13 | 10.72769 | -66.54751 | 8358 ft | 274 kts | 105° |
| 2026-05-05 14:14 | 10.72230 | -66.52890 | 8721 ft | 276 kts | 108° |
| 2026-05-05 14:14 | 10.71643 | -66.51028 | 9538 ft | 276 kts | 108° |
| 2026-05-05 14:14 | 10.71051 | -66.49165 | 10289 ft | 280 kts | 108° |
| 2026-05-05 14:14 | 10.70435 | -66.47215 | 10523 ft | 303 kts | 107° |
| 2026-05-05 14:15 | 10.69791 | -66.45162 | 10771 ft | 321 kts | 107° |
| 2026-05-05 14:15 | 10.69108 | -66.42971 | 11307 ft | 328 kts | 107° |
| 2026-05-05 14:15 | 10.68422 | -66.40756 | 11995 ft | 329 kts | 107° |
| 2026-05-05 14:15 | 10.67733 | -66.38528 | 12707 ft | 331 kts | 107° |
| 2026-05-05 14:16 | 10.67042 | -66.36286 | 13327 ft | 335 kts | 107° |
| 2026-05-05 14:16 | 10.66341 | -66.34010 | 13933 ft | 339 kts | 107° |
| 2026-05-05 14:16 | 10.65634 | -66.31715 | 14497 ft | 342 kts | 107° |
| 2026-05-05 14:16 | 10.64920 | -66.29397 | 15044 ft | 346 kts | 107° |
| 2026-05-05 14:17 | 10.64207 | -66.27081 | 15577 ft | 350 kts | 107° |
| 2026-05-05 14:17 | 10.63476 | -66.24709 | 16125 ft | 353 kts | 107° |
| 2026-05-05 14:17 | 10.62740 | -66.22317 | 16692 ft | 356 kts | 106° |
| 2026-05-05 14:17 | 10.61996 | -66.19901 | 17253 ft | 360 kts | 106° |
| 2026-05-05 14:18 | 10.61243 | -66.17459 | 17797 ft | 364 kts | 106° |
| 2026-05-05 14:18 | 10.60483 | -66.14991 | 18309 ft | 368 kts | 106° |
| 2026-05-05 14:18 | 10.59713 | -66.12495 | 18773 ft | 372 kts | 106° |
| 2026-05-05 14:18 | 10.58935 | -66.09973 | 19228 ft | 376 kts | 106° |
| 2026-05-05 14:19 | 10.58157 | -66.07453 | 19643 ft | 381 kts | 106° |
| 2026-05-05 14:19 | 10.57360 | -66.04875 | 20084 ft | 385 kts | 107° |
| 2026-05-05 14:19 | 10.56519 | -66.02276 | 20504 ft | 389 kts | 108° |
| 2026-05-05 14:19 | 10.55638 | -65.99661 | 20931 ft | 393 kts | 108° |
| 2026-05-05 14:20 | 10.54740 | -65.97028 | 21378 ft | 396 kts | 108° |
| 2026-05-05 14:20 | 10.53833 | -65.94373 | 21804 ft | 399 kts | 108° |
| 2026-05-05 14:20 | 10.52919 | -65.91692 | 22213 ft | 403 kts | 108° |
| 2026-05-05 14:20 | 10.52000 | -65.88987 | 22594 ft | 407 kts | 108° |
| 2026-05-05 14:21 | 10.51083 | -65.86283 | 22946 ft | 412 kts | 108° |
| 2026-05-05 14:21 | 10.50147 | -65.83518 | 23317 ft | 417 kts | 108° |
| 2026-05-05 14:21 | 10.49201 | -65.80723 | 23696 ft | 420 kts | 108° |
| 2026-05-05 14:21 | 10.48248 | -65.77905 | 24027 ft | 423 kts | 108° |
| 2026-05-05 14:22 | 10.47292 | -65.75077 | 24356 ft | 425 kts | 108° |
| 2026-05-05 14:22 | 10.46328 | -65.72228 | 24703 ft | 427 kts | 108° |
| 2026-05-05 14:22 | 10.45359 | -65.69364 | 25040 ft | 429 kts | 108° |
| 2026-05-05 14:22 | 10.44386 | -65.66489 | 25369 ft | 432 kts | 108° |
| 2026-05-05 14:23 | 10.43421 | -65.63641 | 25707 ft | 434 kts | 108° |
| 2026-05-05 14:23 | 10.42437 | -65.60736 | 26019 ft | 436 kts | 108° |
| 2026-05-05 14:23 | 10.41448 | -65.57817 | 26331 ft | 438 kts | 109° |
| 2026-05-05 14:23 | 10.40453 | -65.54880 | 26633 ft | 441 kts | 109° |
| 2026-05-05 14:24 | 10.39454 | -65.51933 | 26936 ft | 443 kts | 109° |
| 2026-05-05 14:24 | 10.38462 | -65.49011 | 27232 ft | 445 kts | 109° |
| 2026-05-05 14:24 | 10.37437 | -65.45989 | 27529 ft | 447 kts | 109° |
| 2026-05-05 14:24 | 10.36420 | -65.42994 | 27813 ft | 449 kts | 109° |
| 2026-05-05 14:25 | 10.35413 | -65.40027 | 28089 ft | 452 kts | 109° |
| 2026-05-05 14:25 | 10.34387 | -65.37007 | 28361 ft | 454 kts | 109° |
| 2026-05-05 14:25 | 10.33355 | -65.33970 | 28621 ft | 456 kts | 109° |
| 2026-05-05 14:25 | 10.32318 | -65.30918 | 28875 ft | 458 kts | 109° |
| 2026-05-05 14:26 | 10.31275 | -65.27850 | 29134 ft | 460 kts | 109° |
| 2026-05-05 14:26 | 10.30229 | -65.24774 | 29387 ft | 462 kts | 109° |
| 2026-05-05 14:26 | 10.29177 | -65.21682 | 29624 ft | 464 kts | 109° |
| 2026-05-05 14:26 | 10.28478 | -65.19629 | 29780 ft | 466 kts | 109° |
| 2026-05-05 14:27 | 10.27072 | -65.15499 | 30088 ft | 468 kts | 109° |
| 2026-05-05 14:27 | 10.26006 | -65.12368 | 30310 ft | 470 kts | 109° |
| 2026-05-05 14:27 | 10.24938 | -65.09233 | 30524 ft | 471 kts | 109° |
| 2026-05-05 14:27 | 10.23866 | -65.06089 | 30738 ft | 472 kts | 109° |
| 2026-05-05 14:28 | 10.22792 | -65.02937 | 30939 ft | 473 kts | 108° |
| 2026-05-05 14:28 | 10.21713 | -64.99773 | 31146 ft | 474 kts | 108° |
| 2026-05-05 14:28 | 10.20997 | -64.97675 | 31324 ft | 474 kts | 108° |
| 2026-05-05 14:28 | 10.19921 | -64.94522 | 31640 ft | 472 kts | 108° |
| 2026-05-05 14:29 | 10.18502 | -64.90366 | 32094 ft | 469 kts | 108° |
| 2026-05-05 14:29 | 10.17435 | -64.87242 | 32372 ft | 469 kts | 108° |
| 2026-05-05 14:29 | 10.16367 | -64.84115 | 32610 ft | 469 kts | 108° |
| 2026-05-05 14:29 | 10.15299 | -64.80990 | 32882 ft | 468 kts | 108° |
| 2026-05-05 14:30 | 10.14594 | -64.78925 | 33090 ft | 467 kts | 108° |
| 2026-05-05 14:30 | 10.13531 | -64.75816 | 33411 ft | 466 kts | 108° |
| 2026-05-05 14:30 | 10.12470 | -64.72715 | 33730 ft | 464 kts | 107° |
| 2026-05-05 14:30 | 10.11412 | -64.69622 | 34004 ft | 464 kts | 107° |
| 2026-05-05 14:31 | 10.10485 | -64.66491 | 34220 ft | 463 kts | 103° |
| 2026-05-05 14:31 | 10.09472 | -64.62295 | 34581 ft | 461 kts | 101° |
| 2026-05-05 14:31 | 10.08762 | -64.59129 | 34864 ft | 459 kts | 101° |
| 2026-05-05 14:31 | 10.08287 | -64.56995 | 35027 ft | 459 kts | 101° |
| 2026-05-05 14:32 | 10.06851 | -64.50685 | 35060 ft | 463 kts | 101° |
| 2026-05-05 14:32 | 10.05365 | -64.44364 | 35060 ft | 458 kts | 102° |
| 2026-05-05 14:33 | 10.03874 | -64.38095 | 35069 ft | 455 kts | 102° |
| 2026-05-05 14:33 | 10.02390 | -64.31863 | 35069 ft | 454 kts | 102° |
| 2026-05-05 14:34 | 10.00920 | -64.25685 | 35074 ft | 453 kts | 102° |
| 2026-05-05 14:34 | 9.99442 | -64.19474 | 35087 ft | 453 kts | 102° |
| 2026-05-05 14:35 | 9.97959 | -64.13250 | 35098 ft | 454 kts | 102° |
| 2026-05-05 14:35 | 9.96471 | -64.07010 | 35107 ft | 456 kts | 102° |
| 2026-05-05 14:36 | 9.94985 | -64.00785 | 35088 ft | 458 kts | 102° |
| 2026-05-05 14:36 | 9.93472 | -63.94493 | 35093 ft | 460 kts | 102° |
| 2026-05-05 14:37 | 9.91952 | -63.88187 | 35100 ft | 461 kts | 102° |
| 2026-05-05 14:37 | 9.90427 | -63.81862 | 35095 ft | 462 kts | 102° |
| 2026-05-05 14:38 | 9.88913 | -63.75577 | 35102 ft | 462 kts | 102° |
| 2026-05-05 14:38 | 9.87385 | -63.69246 | 35093 ft | 462 kts | 102° |
| 2026-05-05 14:39 | 9.85856 | -63.62915 | 35089 ft | 462 kts | 102° |
| 2026-05-05 14:39 | 9.84328 | -63.56593 | 35091 ft | 461 kts | 102° |
| 2026-05-05 14:40 | 9.82810 | -63.50313 | 35080 ft | 461 kts | 102° |
| 2026-05-05 14:40 | 9.81282 | -63.44003 | 35083 ft | 461 kts | 102° |
| 2026-05-05 14:41 | 9.79748 | -63.37692 | 35081 ft | 461 kts | 102° |
| 2026-05-05 14:41 | 9.78214 | -63.31383 | 35075 ft | 460 kts | 102° |
| 2026-05-05 14:42 | 9.76692 | -63.25124 | 35062 ft | 460 kts | 102° |
| 2026-05-05 14:42 | 9.75158 | -63.18824 | 35075 ft | 460 kts | 102° |
| 2026-05-05 14:43 | 9.72800 | -63.12800 | 35079 ft | 462 kts | 120° |
| 2026-05-05 14:43 | 9.69264 | -63.07360 | 35065 ft | 463 kts | 123° |
| 2026-05-05 14:44 | 9.65646 | -63.01961 | 35071 ft | 463 kts | 123° |
| 2026-05-05 14:44 | 9.62079 | -62.96573 | 35059 ft | 464 kts | 122° |
| 2026-05-05 14:45 | 9.58510 | -62.91125 | 35057 ft | 464 kts | 122° |
| 2026-05-05 14:45 | 9.54949 | -62.85670 | 35059 ft | 465 kts | 122° |
| 2026-05-05 14:46 | 9.51378 | -62.80204 | 35060 ft | 465 kts | 122° |
| 2026-05-05 14:46 | 9.47827 | -62.74773 | 35059 ft | 466 kts | 122° |
| 2026-05-05 14:47 | 9.44244 | -62.69297 | 35054 ft | 467 kts | 122° |
| 2026-05-05 14:47 | 9.40651 | -62.63809 | 35061 ft | 467 kts | 123° |
| 2026-05-05 14:48 | 9.37056 | -62.58319 | 35053 ft | 468 kts | 123° |
| 2026-05-05 14:48 | 9.33479 | -62.52859 | 35061 ft | 469 kts | 123° |
| 2026-05-05 14:49 | 9.29872 | -62.47357 | 35061 ft | 469 kts | 123° |
| 2026-05-05 14:49 | 9.26263 | -62.41852 | 35047 ft | 470 kts | 123° |
| 2026-05-05 14:50 | 9.22649 | -62.36343 | 35058 ft | 470 kts | 123° |
| 2026-05-05 14:50 | 9.19058 | -62.30873 | 35055 ft | 470 kts | 123° |
| 2026-05-05 14:51 | 9.15444 | -62.25369 | 35047 ft | 470 kts | 123° |
| 2026-05-05 14:51 | 9.11828 | -62.19864 | 35059 ft | 469 kts | 123° |
| 2026-05-05 14:52 | 9.08214 | -62.14364 | 35048 ft | 470 kts | 123° |
| 2026-05-05 14:52 | 9.04621 | -62.08899 | 35047 ft | 469 kts | 123° |
| 2026-05-05 14:53 | 9.01007 | -62.03404 | 35055 ft | 469 kts | 123° |
| 2026-05-05 14:53 | 8.97391 | -61.97908 | 35052 ft | 469 kts | 123° |
| 2026-05-05 14:54 | 8.93772 | -61.92412 | 35053 ft | 469 kts | 123° |
| 2026-05-05 14:54 | 8.90180 | -61.86957 | 35062 ft | 469 kts | 123° |
| 2026-05-05 14:55 | 8.86560 | -61.81462 | 35058 ft | 469 kts | 123° |
| 2026-05-05 14:55 | 8.82938 | -61.75967 | 35054 ft | 470 kts | 123° |
| 2026-05-05 14:56 | 8.79315 | -61.70473 | 35064 ft | 470 kts | 124° |
| 2026-05-05 14:56 | 8.75692 | -61.64980 | 35067 ft | 470 kts | 124° |
| 2026-05-05 14:57 | 8.72084 | -61.59512 | 35054 ft | 470 kts | 124° |
| 2026-05-05 14:57 | 8.68454 | -61.54015 | 35067 ft | 470 kts | 124° |
| 2026-05-05 14:58 | 8.64823 | -61.48516 | 35063 ft | 471 kts | 124° |
| 2026-05-05 14:58 | 8.61186 | -61.43012 | 35064 ft | 471 kts | 124° |
| 2026-05-05 14:59 | 8.57575 | -61.37549 | 35066 ft | 471 kts | 124° |
| 2026-05-05 14:59 | 8.53940 | -61.32051 | 35060 ft | 471 kts | 124° |
| 2026-05-05 15:00 | 8.50914 | -61.27475 | 35061 ft | 471 kts | 124° |
| 2026-05-05 15:00 | 8.46660 | -61.21047 | 35065 ft | 471 kts | 124° |
| 2026-05-05 15:01 | 8.43045 | -61.15579 | 35060 ft | 471 kts | 124° |
| 2026-05-05 15:01 | 8.39409 | -61.10075 | 35068 ft | 471 kts | 124° |
| 2026-05-05 15:02 | 8.35774 | -61.04572 | 35063 ft | 471 kts | 124° |
| 2026-05-05 15:02 | 8.32137 | -60.99068 | 35059 ft | 471 kts | 124° |
| 2026-05-05 15:03 | 8.28524 | -60.93604 | 35066 ft | 471 kts | 124° |
| 2026-05-05 15:03 | 8.24887 | -60.88106 | 35059 ft | 471 kts | 124° |
| 2026-05-05 15:04 | 8.21249 | -60.82608 | 35055 ft | 471 kts | 124° |
| 2026-05-05 15:04 | 8.17610 | -60.77110 | 35065 ft | 471 kts | 124° |
| 2026-05-05 15:05 | 8.12178 | -60.68909 | 35061 ft | 471 kts | 124° |
| 2026-05-05 15:06 | 8.08532 | -60.63407 | 35056 ft | 472 kts | 124° |
| 2026-05-05 15:06 | 8.04885 | -60.57904 | 35063 ft | 472 kts | 124° |
| 2026-05-05 15:07 | 8.01236 | -60.52402 | 35063 ft | 472 kts | 125° |
| 2026-05-05 15:07 | 7.97611 | -60.46936 | 35064 ft | 472 kts | 125° |
| 2026-05-05 15:08 | 7.93958 | -60.41431 | 35059 ft | 472 kts | 125° |
| 2026-05-05 15:08 | 7.90308 | -60.35931 | 35061 ft | 472 kts | 125° |
| 2026-05-05 15:09 | 7.86652 | -60.30428 | 35055 ft | 472 kts | 125° |
| 2026-05-05 15:09 | 7.83004 | -60.24964 | 35061 ft | 472 kts | 125° |
| 2026-05-05 15:10 | 7.79336 | -60.19477 | 35063 ft | 472 kts | 125° |
| 2026-05-05 15:10 | 7.75702 | -60.14039 | 35047 ft | 463 kts | 125° |
| 2026-05-05 15:11 | 7.72122 | -60.08683 | 35064 ft | 460 kts | 125° |
| 2026-05-05 15:11 | 7.70337 | -60.06012 | 34919 ft | 461 kts | 125° |
| 2026-05-05 15:11 | 7.68565 | -60.03363 | 34427 ft | 462 kts | 126° |
| 2026-05-05 15:11 | 7.66782 | -60.00697 | 34150 ft | 455 kts | 126° |
| 2026-05-05 15:12 | 7.65016 | -59.98055 | 33588 ft | 455 kts | 125° |
| 2026-05-05 15:12 | 7.63256 | -59.95424 | 33265 ft | 449 kts | 125° |
| 2026-05-05 15:12 | 7.61514 | -59.92820 | 32761 ft | 449 kts | 125° |
| 2026-05-05 15:12 | 7.59773 | -59.90218 | 32435 ft | 443 kts | 125° |
| 2026-05-05 15:13 | 7.58057 | -59.87654 | 31931 ft | 443 kts | 125° |
| 2026-05-05 15:13 | 7.56338 | -59.85086 | 31605 ft | 438 kts | 125° |
| 2026-05-05 15:13 | 7.54662 | -59.82584 | 31134 ft | 437 kts | 125° |
| 2026-05-05 15:13 | 7.52966 | -59.80051 | 30791 ft | 433 kts | 125° |
| 2026-05-05 15:14 | 7.51283 | -59.77537 | 30332 ft | 433 kts | 125° |
| 2026-05-05 15:14 | 7.49607 | -59.75034 | 29953 ft | 429 kts | 125° |
| 2026-05-05 15:14 | 7.47940 | -59.72546 | 29472 ft | 427 kts | 125° |
| 2026-05-05 15:14 | 7.46286 | -59.70076 | 29036 ft | 423 kts | 126° |
| 2026-05-05 15:15 | 7.44646 | -59.67629 | 28607 ft | 420 kts | 126° |
| 2026-05-05 15:15 | 7.43017 | -59.65199 | 28187 ft | 416 kts | 126° |
| 2026-05-05 15:15 | 7.41406 | -59.62797 | 27790 ft | 413 kts | 125° |
| 2026-05-05 15:15 | 7.39827 | -59.60440 | 27382 ft | 410 kts | 125° |
| 2026-05-05 15:16 | 7.38237 | -59.58069 | 26972 ft | 407 kts | 126° |
| 2026-05-05 15:16 | 7.36668 | -59.55727 | 26560 ft | 400 kts | 125° |
| 2026-05-05 15:16 | 7.35122 | -59.53422 | 26156 ft | 394 kts | 126° |
| 2026-05-05 15:16 | 7.33601 | -59.51156 | 25771 ft | 387 kts | 126° |
| 2026-05-05 15:17 | 7.32104 | -59.48924 | 25386 ft | 382 kts | 126° |
| 2026-05-05 15:17 | 7.30627 | -59.46723 | 24987 ft | 377 kts | 126° |
| 2026-05-05 15:17 | 7.29170 | -59.44552 | 24615 ft | 371 kts | 126° |
| 2026-05-05 15:17 | 7.27728 | -59.42404 | 24219 ft | 370 kts | 126° |
| 2026-05-05 15:18 | 7.26312 | -59.40294 | 23868 ft | 368 kts | 126° |
| 2026-05-05 15:18 | 7.24874 | -59.38154 | 23404 ft | 369 kts | 125° |
| 2026-05-05 15:18 | 7.23438 | -59.36017 | 23016 ft | 367 kts | 125° |
| 2026-05-05 15:18 | 7.22015 | -59.33897 | 22637 ft | 364 kts | 124° |
| 2026-05-05 15:19 | 7.20601 | -59.31790 | 22233 ft | 362 kts | 124° |
| 2026-05-05 15:19 | 7.19195 | -59.29699 | 21867 ft | 359 kts | 124° |
| 2026-05-05 15:19 | 7.17800 | -59.27623 | 21501 ft | 356 kts | 124° |
| 2026-05-05 15:19 | 7.16417 | -59.25564 | 21133 ft | 354 kts | 123° |
| 2026-05-05 15:20 | 7.15043 | -59.23519 | 20768 ft | 351 kts | 123° |
| 2026-05-05 15:20 | 7.13696 | -59.21513 | 20402 ft | 349 kts | 123° |
| 2026-05-05 15:20 | 7.12338 | -59.19493 | 20053 ft | 347 kts | 123° |
| 2026-05-05 15:20 | 7.10992 | -59.17489 | 19630 ft | 345 kts | 123° |
| 2026-05-05 15:21 | 7.09653 | -59.15496 | 19296 ft | 342 kts | 122° |
| 2026-05-05 15:21 | 7.08323 | -59.13516 | 18919 ft | 341 kts | 122° |
| 2026-05-05 15:21 | 7.06992 | -59.11535 | 18549 ft | 340 kts | 122° |
| 2026-05-05 15:21 | 7.05669 | -59.09567 | 18179 ft | 339 kts | 122° |
| 2026-05-05 15:22 | 7.04350 | -59.07604 | 17752 ft | 338 kts | 122° |
| 2026-05-05 15:22 | 7.03057 | -59.05680 | 17413 ft | 334 kts | 122° |
| 2026-05-05 15:22 | 7.01757 | -59.03747 | 17026 ft | 333 kts | 122° |
| 2026-05-05 15:22 | 7.00467 | -59.01827 | 16680 ft | 330 kts | 122° |
| 2026-05-05 15:23 | 6.99186 | -58.99923 | 16307 ft | 327 kts | 122° |
| 2026-05-05 15:23 | 6.97914 | -58.98031 | 15963 ft | 325 kts | 122° |
| 2026-05-05 15:23 | 6.96652 | -58.96154 | 15617 ft | 323 kts | 123° |
| 2026-05-05 15:23 | 6.95398 | -58.94290 | 15274 ft | 321 kts | 123° |
| 2026-05-05 15:24 | 6.94150 | -58.92434 | 14925 ft | 319 kts | 123° |
| 2026-05-05 15:24 | 6.92924 | -58.90612 | 14581 ft | 318 kts | 123° |
| 2026-05-05 15:24 | 6.91687 | -58.88773 | 14241 ft | 316 kts | 123° |
| 2026-05-05 15:24 | 6.90457 | -58.86944 | 13903 ft | 315 kts | 123° |
| 2026-05-05 15:25 | 6.89231 | -58.85123 | 13494 ft | 314 kts | 123° |
| 2026-05-05 15:25 | 6.88010 | -58.83310 | 13141 ft | 312 kts | 123° |
| 2026-05-05 15:25 | 6.86800 | -58.81512 | 12795 ft | 309 kts | 123° |
| 2026-05-05 15:25 | 6.85597 | -58.79724 | 12445 ft | 307 kts | 123° |
| 2026-05-05 15:26 | 6.84418 | -58.77973 | 12114 ft | 305 kts | 123° |
| 2026-05-05 15:26 | 6.83231 | -58.76210 | 11774 ft | 303 kts | 123° |
| 2026-05-05 15:26 | 6.82052 | -58.74458 | 11440 ft | 302 kts | 123° |
| 2026-05-05 15:26 | 6.80879 | -58.72717 | 11117 ft | 300 kts | 123° |
| 2026-05-05 15:27 | 6.79713 | -58.70986 | 10783 ft | 298 kts | 123° |
| 2026-05-05 15:27 | 6.78550 | -58.69259 | 10450 ft | 298 kts | 123° |
| 2026-05-05 15:27 | 6.77351 | -58.67613 | 10248 ft | 285 kts | 132° |
| 2026-05-05 15:27 | 6.75818 | -58.66419 | 10162 ft | 275 kts | 146° |
| 2026-05-05 15:28 | 6.74241 | -58.65455 | 10065 ft | 266 kts | 147° |
| 2026-05-05 15:28 | 6.72643 | -58.64494 | 9749 ft | 267 kts | 147° |
| 2026-05-05 15:28 | 6.71058 | -58.63542 | 9482 ft | 265 kts | 147° |
| 2026-05-05 15:28 | 6.69480 | -58.62588 | 9174 ft | 264 kts | 147° |
| 2026-05-05 15:29 | 6.67911 | -58.61636 | 8905 ft | 263 kts | 146° |
| 2026-05-05 15:29 | 6.66347 | -58.60685 | 8618 ft | 262 kts | 146° |
| 2026-05-05 15:29 | 6.64787 | -58.59733 | 8336 ft | 262 kts | 146° |
| 2026-05-05 15:29 | 6.63234 | -58.58784 | 8061 ft | 261 kts | 146° |
| 2026-05-05 15:30 | 6.61682 | -58.57835 | 7773 ft | 261 kts | 146° |
| 2026-05-05 15:30 | 6.60577 | -58.57160 | 7570 ft | 261 kts | 146° |
| 2026-05-05 15:30 | 6.59209 | -58.56322 | 7331 ft | 260 kts | 146° |
| 2026-05-05 15:30 | 6.57662 | -58.55376 | 7052 ft | 260 kts | 146° |
| 2026-05-05 15:31 | 6.56117 | -58.54430 | 6773 ft | 260 kts | 146° |
| 2026-05-05 15:31 | 6.54571 | -58.53484 | 6496 ft | 260 kts | 146° |
| 2026-05-05 15:31 | 6.53022 | -58.52535 | 6207 ft | 260 kts | 146° |
| 2026-05-05 15:31 | 6.51477 | -58.51590 | 5935 ft | 260 kts | 146° |
| 2026-05-05 15:32 | 6.49930 | -58.50642 | 5636 ft | 260 kts | 146° |
| 2026-05-05 15:32 | 6.48389 | -58.49699 | 5378 ft | 259 kts | 145° |
| 2026-05-05 15:32 | 6.46874 | -58.48771 | 5116 ft | 258 kts | 146° |
| 2026-05-05 15:32 | 6.45340 | -58.47833 | 4843 ft | 258 kts | 146° |
| 2026-05-05 15:33 | 6.43806 | -58.46896 | 4558 ft | 257 kts | 146° |
| 2026-05-05 15:33 | 6.42351 | -58.45872 | 4268 ft | 254 kts | 135° |
| 2026-05-05 15:33 | 6.41116 | -58.44644 | 4197 ft | 244 kts | 131° |
| 2026-05-05 15:33 | 6.39947 | -58.43431 | 4012 ft | 241 kts | 131° |
| 2026-05-05 15:34 | 6.38791 | -58.42247 | 3943 ft | 233 kts | 131° |
| 2026-05-05 15:34 | 6.37718 | -58.41068 | 3817 ft | 223 kts | 118° |
| 2026-05-05 15:34 | 6.37427 | -58.39665 | 3686 ft | 201 kts | 76° |
| 2026-05-05 15:34 | 6.37948 | -58.38405 | 3311 ft | 199 kts | 62° |
| 2026-05-05 15:35 | 6.38592 | -58.37181 | 2904 ft | 197 kts | 58° |
| 2026-05-05 15:35 | 6.39386 | -58.36100 | 2678 ft | 187 kts | 53° |
| 2026-05-05 15:35 | 6.40220 | -58.35110 | 2427 ft | 183 kts | 49° |
| 2026-05-05 15:35 | 6.41102 | -58.34204 | 2135 ft | 179 kts | 46° |
| 2026-05-05 15:36 | 6.41969 | -58.33339 | 1931 ft | 176 kts | 46° |
| 2026-05-05 15:36 | 6.42841 | -58.32464 | 1718 ft | 174 kts | 45° |
| 2026-05-05 15:36 | 6.43669 | -58.31633 | 1437 ft | 160 kts | 48° |
| 2026-05-05 15:36 | 6.44417 | -58.30880 | 1278 ft | 150 kts | 46° |
| 2026-05-05 15:37 | 6.45139 | -58.30152 | 1108 ft | 147 kts | 48° |
| 2026-05-05 15:37 | 6.45859 | -58.29429 | 923 ft | 144 kts | 47° |
| 2026-05-05 15:37 | 6.46569 | -58.28714 | 736 ft | 146 kts | 45° |
| 2026-05-05 15:37 | 6.47290 | -58.27991 | 526 ft | 146 kts | 44° |
| 2026-05-05 15:38 | 6.48020 | -58.27255 | 345 ft | 151 kts | 44° |
| 2026-05-05 15:38 | 6.48753 | -58.26520 | 200 ft | 149 kts | 43° |
| 2026-05-05 15:38 | 6.49453 | -58.25841 | 104 ft | 107 kts | 54° |
| 2026-05-05 15:38 | 6.49637 | -58.25635 | 106 ft | 0 kts | 44° |
| 2026-05-05 15:39 | 6.49645 | -58.25627 | 106 ft | 9 kts | 45° |
| 2026-05-05 15:39 | 6.49734 | -58.25533 | 107 ft | 27 kts | 42° |
| 2026-05-05 15:39 | 6.49904 | -58.25365 | 105 ft | 40 kts | 45° |
| 2026-05-05 15:40 | 6.50083 | -58.25319 | 104 ft | 23 kts | 314° |
| 2026-05-05 15:40 | 6.50192 | -58.25429 | 104 ft | 22 kts | 314° |
| 2026-05-05 15:40 | 6.50220 | -58.25460 | 105 ft | 1 kts | 302° |
| 2026-05-05 15:40 | 6.50222 | -58.25463 | 105 ft | 0 kts | 301° |